Time;durP1;ratioP1;P1;durP2;ratioP2;P2;SDS_P1;SDS_P2;PMS_P1;PMS_P2;Temp;Humidity;BMP_temperature;BMP_pressure;BME280_temperature;BME280_humidity;BME280_pressure;Samples;Min_cycle;Max_cycle;Signal;HPM_P1;HPM_P2
2023/10/12 00:00:24;;;;;;;0.25;0.25;;;;;;;14.08;100.00;95984.81;1014937;29;20032;-77
2023/10/12 00:00:54;;;;;;;0.55;0.47;;;;;;;14.10;100.00;95982.69;1016556;29;20101;-76
2023/10/12 00:01:25;;;;;;;0.50;0.50;;;;;;;14.14;100.00;95978.41;1018879;29;20027;-75
2023/10/12 00:01:59;;;;;;;0.60;0.60;;;;;;;14.07;100.00;95972.69;1012344;29;20596;-76
2023/10/12 00:02:32;;;;;;;1.65;1.13;;;;;;;14.14;100.00;95978.41;1009503;29;20024;-75
2023/10/12 00:03:05;;;;;;;0.93;0.93;;;;;;;14.11;100.00;95974.47;1011837;29;20024;-75
2023/10/12 00:03:36;;;;;;;0.32;0.32;;;;;;;14.10;100.00;95962.34;1013220;29;20040;-75
2023/10/12 00:04:07;;;;;;;1.02;1.02;;;;;;;14.17;100.00;95967.31;1014907;29;20035;-76
2023/10/12 00:05:17;;;;;;;0.60;0.60;;;;;;;14.22;100.00;95972.53;1014953;29;20043;-74
2023/10/12 00:05:47;;;;;;;0.30;0.30;;;;;;;14.23;100.00;95973.31;1012458;29;20036;-75
2023/10/12 00:06:18;;;;;;;1.45;1.08;;;;;;;14.15;100.00;95964.16;1016244;29;20032;-77
2023/10/12 00:06:51;;;;;;;1.05;0.60;;;;;;;14.18;100.00;95974.16;1023173;28;20027;-76
2023/10/12 00:07:33;;;;;;;0.22;0.22;;;;;;;14.14;100.00;95967.88;1026871;28;20039;-74
2023/10/12 00:08:10;;;;;;;1.70;1.60;;;;;;;14.14;100.00;95975.78;1022724;29;20624;-73
2023/10/12 00:08:40;;;;;;;0.90;0.70;;;;;;;14.10;100.00;95972.13;1020224;29;20048;-75
2023/10/12 00:09:17;;;;;;;0.52;0.52;;;;;;;14.08;100.00;95974.25;1021168;29;20035;-76
2023/10/12 00:10:00;;;;;;;0.10;0.10;;;;;;;13.99;100.00;95968.81;1026161;28;20050;-76
2023/10/12 00:10:40;;;;;;;0.20;0.20;;;;;;;13.95;100.00;95966.97;1022907;29;20948;-76
2023/10/12 00:11:11;;;;;;;1.25;0.50;;;;;;;14.02;100.00;95985.94;1022921;29;20042;-76
2023/10/12 00:11:46;;;;;;;0.15;0.15;;;;;;;14.02;100.00;95976.16;1019166;29;20083;-76
2023/10/12 00:12:21;;;;;;;10.75;3.40;;;;;;;13.99;100.00;95971.44;1018462;29;20483;-77
2023/10/12 00:12:59;;;;;;;2.10;1.23;;;;;;;14.10;100.00;95983.47;1014813;29;20602;-75
2023/10/12 00:13:30;;;;;;;0.25;0.25;;;;;;;14.08;100.00;95972.41;1017052;29;20025;-74
2023/10/12 00:14:00;;;;;;;1.08;0.47;;;;;;;14.18;100.00;95984.72;1014877;29;20425;-76
2023/10/12 00:14:32;;;;;;;0.77;0.77;;;;;;;14.26;100.00;95986.75;1021797;29;20055;-76
2023/10/12 00:15:11;;;;;;;3.15;0.98;;;;;;;14.32;100.00;95980.34;1026626;28;20019;-76
2023/10/12 00:15:46;;;;;;;0.20;0.20;;;;;;;14.42;100.00;95979.47;1022941;29;20038;-76
2023/10/12 00:16:19;;;;;;;2.95;0.60;;;;;;;14.42;100.00;95989.22;1020861;29;20042;-76
2023/10/12 00:16:52;;;;;;;0.30;0.30;;;;;;;14.36;100.00;95986.66;1019753;29;20470;-77
2023/10/12 00:17:26;;;;;;;0.22;0.22;;;;;;;14.37;100.00;95992.72;1025447;28;20034;-74
2023/10/12 00:17:59;;;;;;;0.30;0.30;;;;;;;14.27;100.00;95983.03;1026613;28;20198;-78
2023/10/12 00:18:34;;;;;;;0.80;0.57;;;;;;;14.26;100.00;95984.13;1022802;29;20023;-74
2023/10/12 00:19:11;;;;;;;0.35;0.35;;;;;;;14.22;100.00;95991.03;1018887;29;20026;-76
2023/10/12 00:19:41;;;;;;;2.45;1.27;;;;;;;14.09;100.00;95975.84;1017156;29;20035;-78
2023/10/12 00:20:24;;;;;;;29.35;1.25;;;;;;;14.11;100.00;95985.03;1019526;29;20032;-75
2023/10/12 00:20:55;;;;;;;0.20;0.20;;;;;;;14.06;100.00;95984.31;1014780;29;20039;-76
2023/10/12 00:21:25;;;;;;;7.10;0.52;;;;;;;14.01;100.00;95984.34;1018976;29;20039;-76
2023/10/12 00:22:09;;;;;;;0.68;0.32;;;;;;;13.94;100.00;95984.66;1014748;29;20072;-76
2023/10/12 00:22:39;;;;;;;0.25;0.20;;;;;;;13.93;100.00;95972.56;1019775;29;20024;-76
2023/10/12 00:23:10;;;;;;;0.52;0.22;;;;;;;13.80;100.00;95967.91;1011070;29;20032;-76
2023/10/12 00:23:41;;;;;;;0.82;0.82;;;;;;;13.82;100.00;95974.50;1014710;29;20020;-75
2023/10/12 00:24:13;;;;;;;0.65;0.65;;;;;;;13.80;100.00;95976.59;1018771;29;20023;-75
2023/10/12 00:24:46;;;;;;;1.52;1.42;;;;;;;13.79;100.00;95974.25;1022798;29;20107;-76
2023/10/12 00:25:17;;;;;;;2.92;1.00;;;;;;;13.75;100.00;95974.03;1014716;29;20019;-76
2023/10/12 00:25:54;;;;;;;0.30;0.30;;;;;;;13.72;100.00;95971.94;1015395;29;20031;-76
2023/10/12 00:26:24;;;;;;;4.38;0.80;;;;;;;13.66;100.00;95968.56;1018774;29;20016;-76
2023/10/12 00:26:56;;;;;;;0.43;0.43;;;;;;;13.66;100.00;95973.03;1023583;28;20082;-76
2023/10/12 00:27:26;;;;;;;2.42;0.75;;;;;;;13.64;100.00;95969.88;1022794;29;20034;-76
2023/10/12 00:27:57;;;;;;;1.95;1.55;;;;;;;13.59;100.00;95962.03;1018860;29;20074;-75
2023/10/12 00:28:29;;;;;;;1.98;0.93;;;;;;;13.65;100.00;95971.47;1007102;29;20033;-74
2023/10/12 00:28:59;;;;;;;1.27;1.17;;;;;;;13.64;100.00;95965.38;1010938;29;20032;-76
2023/10/12 00:29:31;;;;;;;1.42;0.60;;;;;;;13.62;100.00;95969.38;1011016;29;20017;-74
2023/10/12 00:30:03;;;;;;;3.22;1.30;;;;;;;13.57;100.00;95959.66;1011782;29;20036;-76
2023/10/12 00:30:34;;;;;;;0.93;0.82;;;;;;;13.59;100.00;95962.81;1026169;28;20031;-75
2023/10/12 00:31:12;;;;;;;1.30;0.50;;;;;;;13.64;100.00;95960.13;1022159;29;20031;-75
2023/10/12 00:31:43;;;;;;;0.95;0.82;;;;;;;13.67;100.00;95961.41;1015687;29;20507;-73
2023/10/12 00:32:13;;;;;;;1.02;1.02;;;;;;;13.66;100.00;95965.91;1012567;29;20036;-75
2023/10/12 00:32:44;;;;;;;1.17;1.08;;;;;;;13.72;100.00;95953.47;1018486;29;20028;-75
2023/10/12 00:33:14;;;;;;;1.95;0.82;;;;;;;13.77;100.00;95953.44;1022852;28;20434;-75
2023/10/12 00:33:48;;;;;;;0.63;0.63;;;;;;;13.79;100.00;95953.16;1026569;28;20029;-76
2023/10/12 00:34:23;;;;;;;0.10;0.10;;;;;;;13.80;100.00;95958.16;1022593;29;20032;-76
2023/10/12 00:34:54;;;;;;;0.10;0.10;;;;;;;13.86;100.00;95956.25;1013723;29;20028;-76
2023/10/12 00:35:24;;;;;;;1.90;1.38;;;;;;;13.84;100.00;95958.38;1012061;29;20482;-76
2023/10/12 00:36:03;;;;;;;9.23;1.17;;;;;;;13.82;100.00;95956.03;1016112;29;20024;-75
2023/10/12 00:36:37;;;;;;;0.47;0.47;;;;;;;13.78;100.00;95947.09;1024720;28;20540;-77
2023/10/12 00:37:08;;;;;;;0.35;0.35;;;;;;;13.83;100.00;95962.09;1021220;28;20031;-75
2023/10/12 00:37:41;;;;;;;1.65;0.85;;;;;;;13.88;100.00;95954.13;1018792;29;20032;-75
2023/10/12 00:38:23;;;;;;;0.65;0.47;;;;;;;13.91;100.00;95959.63;1016885;29;20039;-74
2023/10/12 00:38:59;;;;;;;0.70;0.70;;;;;;;13.95;100.00;95966.97;1020621;29;20070;-75
2023/10/12 00:39:40;;;;;;;0.98;0.65;;;;;;;13.95;100.00;95956.44;1025538;28;20038;-74
2023/10/12 00:40:26;;;;;;;0.25;0.25;;;;;;;13.96;100.00;95955.38;1022695;29;20031;-75
2023/10/12 00:40:57;;;;;;;0.35;0.32;;;;;;;13.91;100.00;95962.25;1016349;29;20466;-76
2023/10/12 00:41:29;;;;;;;0.57;0.50;;;;;;;13.94;100.00;95958.28;1015118;29;20031;-75
2023/10/12 00:42:00;;;;;;;0.77;0.60;;;;;;;13.91;100.00;95961.47;1017884;29;20535;-75
2023/10/12 00:42:34;;;;;;;0.30;0.30;;;;;;;13.93;100.00;95955.94;1020163;29;20031;-75
2023/10/12 00:43:05;;;;;;;1.40;1.00;;;;;;;13.95;100.00;95954.59;1018738;29;20035;-75
2023/10/12 00:43:50;;;;;;;0.38;0.38;;;;;;;13.86;100.00;95941.22;1018572;29;20496;-75
2023/10/12 00:44:26;;;;;;;0.88;0.60;;;;;;;13.83;100.00;95938.34;1021403;29;20040;-76
2023/10/12 00:44:57;;;;;;;1.73;1.02;;;;;;;13.87;100.00;95955.19;1025837;28;20742;-76
2023/10/12 00:45:29;;;;;;;0.20;0.20;;;;;;;13.79;100.00;95945.25;1025104;28;20023;-76
2023/10/12 00:47:48;;;;;;;0.43;0.40;;;;;;;13.76;100.00;95951.06;1014191;29;20020;-76
2023/10/12 00:48:20;;;;;;;0.43;0.43;;;;;;;13.75;100.00;95949.47;1020969;29;20034;-75
2023/10/12 00:49:46;;;;;;;1.17;0.95;;;;;;;13.66;100.00;95938.75;1018541;29;20098;-75
2023/10/12 00:50:17;;;;;;;0.10;0.10;;;;;;;13.80;100.00;95957.38;1018838;29;20028;-75
2023/10/12 00:50:49;;;;;;;0.70;0.68;;;;;;;13.81;100.00;95957.06;1018673;29;20050;-77
2023/10/12 00:51:20;;;;;;;0.95;0.95;;;;;;;13.79;100.00;95951.31;1022303;29;20015;-73
2023/10/12 00:51:52;;;;;;;3.78;0.43;;;;;;;13.77;100.00;95955.28;1019209;29;20016;-75
2023/10/12 00:52:27;;;;;;;0.80;0.32;;;;;;;13.82;100.00;95953.41;1018007;29;20019;-76
2023/10/12 00:52:58;;;;;;;0.00;0.00;;;;;;;13.84;100.00;95953.88;1018849;29;20019;-75
2023/10/12 00:53:31;;;;;;;2.80;1.25;;;;;;;13.78;100.00;95943.66;1014645;29;20056;-74
2023/10/12 00:54:04;;;;;;;1.40;0.52;;;;;;;13.82;100.00;95955.25;1014799;29;20031;-76
2023/10/12 00:55:21;;;;;;;0.32;0.32;;;;;;;13.77;100.00;95953.44;1019642;29;20024;-77
2023/10/12 00:55:52;;;;;;;0.47;0.47;;;;;;;13.77;100.00;95948.16;1021425;29;20027;-75
2023/10/12 00:56:28;;;;;;;0.50;0.50;;;;;;;13.81;100.00;95962.34;1021215;29;20012;-75
2023/10/12 00:57:10;;;;;;;0.45;0.30;;;;;;;13.78;100.00;95959.47;1018700;29;20020;-74
2023/10/12 00:57:42;;;;;;;1.05;0.50;;;;;;;13.81;100.00;95961.56;1021528;29;20023;-76
2023/10/12 00:58:14;;;;;;;0.00;0.00;;;;;;;13.82;100.00;95957.88;1022792;29;20495;-75
2023/10/12 00:58:45;;;;;;;0.10;0.10;;;;;;;13.82;100.00;95950.75;1026582;28;20022;-75
2023/10/12 00:59:21;;;;;;;0.20;0.20;;;;;;;13.79;100.00;95956.59;1016471;29;20019;-75
2023/10/12 00:59:52;;;;;;;0.20;0.20;;;;;;;13.80;100.00;95958.16;1014530;29;20028;-76
2023/10/12 01:00:23;;;;;;;0.20;0.20;;;;;;;13.77;100.00;95958.69;1014815;29;20031;-74
2023/10/12 01:01:00;;;;;;;0.28;0.28;;;;;;;13.73;100.00;95957.69;1016695;29;20630;-75
2023/10/12 01:01:32;;;;;;;1.25;0.98;;;;;;;13.70;100.00;95958.22;1020484;29;20052;-74
2023/10/12 01:02:08;;;;;;;0.35;0.35;;;;;;;13.62;100.00;95957.00;1018577;29;20028;-74
2023/10/12 01:02:39;;;;;;;1.00;1.00;;;;;;;13.63;100.00;95963.03;1018128;29;20888;-75
2023/10/12 01:03:59;;;;;;;7.05;1.17;;;;;;;13.52;100.00;95961.56;1018652;29;20086;-75
2023/10/12 01:04:30;;;;;;;1.13;0.63;;;;;;;13.48;100.00;95953.41;1010688;29;20428;-76
2023/10/12 01:05:02;;;;;;;0.05;0.05;;;;;;;13.54;100.00;95956.78;1013457;29;20032;-75
2023/10/12 01:05:35;;;;;;;0.70;0.40;;;;;;;13.51;100.00;95955.47;1013584;29;20076;-75
2023/10/12 01:06:51;;;;;;;2.10;0.85;;;;;;;13.46;100.00;95952.09;1010863;29;20814;-77
2023/10/12 01:07:00;;;;;;;1.10;0.30;;;;;;;13.44;100.00;95961.06;1011649;29;20040;-76
2023/10/12 01:07:36;;;;;;;0.73;0.55;;;;;;;13.46;100.00;95965.28;1022280;29;20067;-75
2023/10/12 01:08:06;;;;;;;0.63;0.57;;;;;;;13.36;100.00;95951.13;1018485;29;20030;-76
2023/10/12 01:08:44;;;;;;;0.38;0.38;;;;;;;13.40;100.00;95962.66;1022701;29;20031;-76
2023/10/12 01:09:21;;;;;;;0.15;0.15;;;;;;;13.42;100.00;95962.41;1024818;28;20035;-76
2023/10/12 01:10:03;;;;;;;0.10;0.10;;;;;;;13.43;100.00;95963.97;1026573;28;20045;-75
2023/10/12 01:10:40;;;;;;;0.57;0.57;;;;;;;13.40;100.00;95960.03;1022632;29;20057;-76
2023/10/12 01:11:21;;;;;;;5.43;1.77;;;;;;;13.43;100.00;95967.41;1022659;29;20046;-75
2023/10/12 01:12:00;;;;;;;0.52;0.52;;;;;;;13.37;100.00;95949.25;1018722;29;20032;-75
2023/10/12 01:12:31;;;;;;;0.63;0.63;;;;;;;13.34;100.00;95955.84;1021487;29;20497;-74
2023/10/12 01:13:02;;;;;;;1.15;0.22;;;;;;;13.38;100.00;95956.09;1026493;28;20058;-78
2023/10/12 01:13:33;;;;;;;1.13;0.98;;;;;;;13.37;100.00;95955.31;1024726;28;20093;-75
2023/10/12 01:14:09;;;;;;;1.55;1.45;;;;;;;13.33;100.00;95950.88;1022435;29;20548;-76
2023/10/12 01:14:46;;;;;;;1.27;1.00;;;;;;;13.40;100.00;95960.03;1018411;29;20051;-75
2023/10/12 01:15:17;;;;;;;0.75;0.75;;;;;;;13.38;100.00;95962.19;1006992;29;20056;-75
2023/10/12 01:15:48;;;;;;;0.20;0.20;;;;;;;13.38;100.00;95959.53;1010844;29;20038;-76
2023/10/12 01:16:23;;;;;;;0.63;0.63;;;;;;;13.38;100.00;95956.09;1013448;29;20066;-78
2023/10/12 01:16:57;;;;;;;27.00;1.35;;;;;;;13.28;100.00;95948.25;1023184;28;20516;-76
2023/10/12 01:17:34;;;;;;;1.00;0.75;;;;;;;13.28;100.00;95945.63;1022576;29;20544;-76
2023/10/12 01:18:10;;;;;;;0.10;0.10;;;;;;;13.30;100.00;95949.56;1022481;28;20031;-75
2023/10/12 01:18:44;;;;;;;0.80;0.80;;;;;;;13.34;100.00;95958.50;1018637;29;20035;-77
2023/10/12 01:19:21;;;;;;;0.65;0.65;;;;;;;13.32;100.00;95950.09;1010792;29;20109;-76
2023/10/12 01:19:52;;;;;;;0.40;0.40;;;;;;;13.38;100.00;95962.19;1018051;29;20038;-75
2023/10/12 01:20:26;;;;;;;0.38;0.38;;;;;;;13.40;100.00;95960.03;1020907;29;20028;-76
2023/10/12 01:20:58;;;;;;;0.43;0.43;;;;;;;13.36;100.00;95953.75;1020679;29;20039;-76
2023/10/12 01:21:28;;;;;;;0.15;0.13;;;;;;;13.49;100.00;95956.84;1014751;29;20123;-75
2023/10/12 01:22:12;;;;;;;0.38;0.32;;;;;;;13.41;100.00;95945.00;1014045;29;20048;-75
2023/10/12 01:22:43;;;;;;;0.22;0.22;;;;;;;13.46;100.00;95952.09;1018417;29;20059;-75
2023/10/12 01:23:13;;;;;;;0.20;0.20;;;;;;;13.41;100.00;95945.81;1022015;28;20095;-75
2023/10/12 01:23:50;;;;;;;0.25;0.25;;;;;;;13.52;100.00;95951.00;1024436;28;20596;-75
2023/10/12 01:24:30;;;;;;;1.10;0.95;;;;;;;13.58;100.00;95955.97;1024170;28;20027;-76
2023/10/12 01:25:10;;;;;;;0.50;0.50;;;;;;;13.52;100.00;95937.81;1023334;28;20019;-76
2023/10/12 01:25:44;;;;;;;2.00;1.08;;;;;;;13.62;100.00;95945.66;1023149;28;20027;-76
2023/10/12 01:26:14;;;;;;;0.52;0.52;;;;;;;13.61;100.00;95941.44;1029565;28;20039;-75
2023/10/12 01:26:48;;;;;;;0.20;0.20;;;;;;;13.58;100.00;95950.69;1027253;28;20030;-75
2023/10/12 01:27:21;;;;;;;1.67;1.58;;;;;;;13.61;100.00;95951.97;1026588;28;20031;-76
2023/10/12 01:27:53;;;;;;;1.70;0.47;;;;;;;13.59;100.00;95956.75;1017295;29;20207;-75
2023/10/12 01:28:23;;;;;;;13.35;1.35;;;;;;;13.62;100.00;95956.22;1014530;29;20023;-77
2023/10/12 01:28:55;;;;;;;0.88;0.63;;;;;;;13.64;100.00;95946.16;1018484;29;20023;-74
2023/10/12 01:29:26;;;;;;;0.77;0.77;;;;;;;13.64;100.00;95944.28;1011280;29;20032;-76
2023/10/12 01:30:13;;;;;;;0.30;0.15;;;;;;;13.62;100.00;95950.94;1014840;29;20036;-77
2023/10/12 01:30:44;;;;;;;1.27;0.90;;;;;;;13.64;100.00;95956.69;1008482;29;20832;-76
2023/10/12 01:31:27;;;;;;;0.08;0.08;;;;;;;13.68;100.00;95955.06;1010659;29;20033;-77
2023/10/12 01:32:37;;;;;;;0.38;0.38;;;;;;;13.68;100.00;95955.06;1014114;29;20043;-75
2023/10/12 01:33:08;;;;;;;0.63;0.35;;;;;;;13.70;100.00;95955.59;1017407;29;20290;-75
2023/10/12 01:33:41;;;;;;;1.10;0.47;;;;;;;13.63;100.00;95955.91;1024692;28;20410;-76
2023/10/12 01:34:13;;;;;;;0.73;0.73;;;;;;;13.60;100.00;95950.41;1030328;28;20117;-75
2023/10/12 01:34:51;;;;;;;0.40;0.40;;;;;;;13.60;100.00;95948.56;1026416;28;20042;-76
2023/10/12 01:35:32;;;;;;;10.05;1.50;;;;;;;13.63;100.00;95957.78;1016161;29;20035;-76
2023/10/12 01:36:04;;;;;;;0.32;0.32;;;;;;;13.64;100.00;95959.34;1018668;29;20032;-76
2023/10/12 01:36:35;;;;;;;0.22;0.22;;;;;;;13.64;100.00;95959.34;1014771;29;20028;-76
2023/10/12 01:37:11;;;;;;;0.52;0.52;;;;;;;13.62;100.00;95958.84;1019476;29;20099;-76
2023/10/12 01:37:47;;;;;;;0.03;0.03;;;;;;;13.61;100.00;95955.38;1012135;29;20055;-76
2023/10/12 01:38:17;;;;;;;0.22;0.22;;;;;;;13.57;100.00;95948.31;1016060;29;20046;-76
2023/10/12 01:38:50;;;;;;;2.20;0.73;;;;;;;13.59;100.00;95954.13;1017070;29;20089;-75
2023/10/12 01:39:20;;;;;;;0.38;0.38;;;;;;;13.57;100.00;95953.59;1017018;29;20162;-76
2023/10/12 01:41:25;;;;;;;14.32;1.00;;;;;;;13.50;100.00;95955.75;1018470;29;20027;-73
2023/10/12 01:41:56;;;;;;;0.57;0.57;;;;;;;13.40;100.00;95938.16;1014447;29;20414;-75
2023/10/12 01:43:19;;;;;;;0.50;0.50;;;;;;;13.43;100.00;95953.44;1014510;29;20101;-75
2023/10/12 01:43:49;;;;;;;1.70;1.08;;;;;;;13.41;100.00;95959.00;1015191;29;20039;-75
2023/10/12 01:44:20;;;;;;;4.78;1.67;;;;;;;13.40;100.00;95949.50;1015731;29;20528;-73
2023/10/12 01:44:51;;;;;;;2.13;1.13;;;;;;;13.38;100.00;95941.09;1017568;29;20098;-74
2023/10/12 01:46:06;;;;;;;0.77;0.77;;;;;;;13.43;100.00;95951.59;1021729;29;20097;-74
2023/10/12 01:46:40;;;;;;;3.33;1.27;;;;;;;13.40;100.00;95944.22;1017252;29;20126;-75
2023/10/12 01:47:13;;;;;;;0.38;0.38;;;;;;;13.42;100.00;95944.75;1015694;29;20031;-76
2023/10/12 01:47:55;;;;;;;3.22;1.75;;;;;;;13.50;100.00;95945.22;1015840;29;20027;-76
2023/10/12 01:48:29;;;;;;;0.65;0.65;;;;;;;13.54;100.00;95947.00;1015927;29;20028;-75
2023/10/12 01:48:59;;;;;;;6.13;0.75;;;;;;;13.57;100.00;95948.31;1013604;29;20051;-72
2023/10/12 01:49:30;;;;;;;1.40;1.30;;;;;;;13.57;100.00;95950.97;1018859;29;20028;-76
2023/10/12 01:50:02;;;;;;;0.30;0.30;;;;;;;13.62;100.00;95937.75;1023538;29;20412;-76
2023/10/12 01:50:37;;;;;;;0.55;0.40;;;;;;;13.50;100.00;95918.84;1025075;28;20516;-77
2023/10/12 01:51:14;;;;;;;1.08;0.98;;;;;;;13.61;100.00;95933.50;1027820;28;20522;-76
2023/10/12 01:51:45;;;;;;;5.53;1.45;;;;;;;13.72;100.00;95944.78;1025850;28;20023;-78
2023/10/12 01:52:17;;;;;;;1.55;1.45;;;;;;;13.73;100.00;95947.13;1023588;28;20039;-77
2023/10/12 01:52:52;;;;;;;0.63;0.60;;;;;;;13.77;100.00;95942.88;1023622;29;20129;-75
2023/10/12 01:53:25;;;;;;;1.02;0.80;;;;;;;13.84;100.00;95942.56;1020715;28;20039;-74
2023/10/12 01:53:56;;;;;;;0.77;0.20;;;;;;;13.83;100.00;95935.72;1023561;29;20106;-75
2023/10/12 01:54:28;;;;;;;0.40;0.25;;;;;;;13.90;100.00;95941.44;1019570;29;20140;-76
2023/10/12 01:54:58;;;;;;;2.08;0.38;;;;;;;13.85;100.00;95937.00;1016225;29;20020;-76
2023/10/12 01:55:30;;;;;;;0.60;0.60;;;;;;;13.94;100.00;95946.94;1019922;29;20043;-75
2023/10/12 01:56:00;;;;;;;1.30;0.70;;;;;;;13.88;100.00;95941.75;1020616;28;20028;-76
2023/10/12 01:56:32;;;;;;;0.80;0.70;;;;;;;13.96;100.00;95942.19;1024078;28;20479;-76
2023/10/12 01:57:03;;;;;;;0.28;0.28;;;;;;;14.00;100.00;95945.84;1026882;28;20038;-76
2023/10/12 01:57:37;;;;;;;1.45;0.65;;;;;;;13.95;100.00;95946.69;1016028;29;20028;-76
2023/10/12 01:58:12;;;;;;;1.83;0.98;;;;;;;14.00;100.00;95945.84;1020465;29;20512;-76
2023/10/12 01:58:44;;;;;;;0.22;0.20;;;;;;;14.02;100.00;95949.00;1023817;29;20015;-75
2023/10/12 01:59:19;;;;;;;2.20;0.63;;;;;;;14.08;100.00;95953.13;1023529;28;20091;-76
2023/10/12 01:59:49;;;;;;;0.55;0.32;;;;;;;14.06;100.00;95947.38;1027341;28;20023;-76
2023/10/12 02:01:21;;;;;;;0.55;0.55;;;;;;;14.17;100.00;95940.13;1021156;29;20636;-74
2023/10/12 02:01:24;;;;;;;0.50;0.50;;;;;;;14.08;100.00;95945.22;1023726;29;20034;-75
2023/10/12 02:02:06;;;;;;;0.52;0.40;;;;;;;14.16;100.00;95936.72;1012057;29;20048;-76
2023/10/12 02:02:40;;;;;;;1.15;0.57;;;;;;;14.19;100.00;95941.44;1013224;29;20031;-76
2023/10/12 02:03:31;;;;;;;3.60;2.83;;;;;;;14.25;100.00;95942.97;1015058;29;20068;-75
2023/10/12 02:04:05;;;;;;;1.55;0.98;;;;;;;14.22;100.00;95943.50;1017044;29;20032;-76
2023/10/12 02:04:39;;;;;;;2.10;1.08;;;;;;;14.27;100.00;95934.75;1019599;29;20069;-76
2023/10/12 02:05:10;;;;;;;1.00;0.65;;;;;;;14.30;100.00;95937.59;1023873;29;20039;-75
2023/10/12 02:05:51;;;;;;;0.20;0.20;;;;;;;14.35;100.00;95934.94;1024866;28;20034;-76
2023/10/12 02:06:28;;;;;;;0.38;0.38;;;;;;;14.36;100.00;95939.13;1021457;29;20404;-76
2023/10/12 02:07:01;;;;;;;2.78;2.20;;;;;;;14.36;100.00;95936.50;1019939;29;20027;-76
2023/10/12 02:07:33;;;;;;;3.40;1.27;;;;;;;14.36;100.00;95939.13;1015851;29;20111;-75
2023/10/12 02:08:05;;;;;;;3.40;0.43;;;;;;;14.40;100.00;95942.00;1019864;29;20040;-77
2023/10/12 02:08:39;;;;;;;0.55;0.40;;;;;;;14.44;100.00;95947.50;1019700;29;20075;-76
2023/10/12 02:09:10;;;;;;;5.05;1.30;;;;;;;14.45;100.00;95938.50;1015828;29;20032;-75
2023/10/12 02:09:41;;;;;;;0.80;0.70;;;;;;;14.43;100.00;95938.00;1012662;29;20025;-74
2023/10/12 02:10:12;;;;;;;1.27;1.05;;;;;;;14.44;100.00;95942.22;1019869;29;20436;-76
2023/10/12 02:11:53;;;;;;;0.65;0.52;;;;;;;14.44;100.00;95934.28;1016162;29;20024;-76
2023/10/12 02:11:53;;;;;;;0.82;0.82;;;;;;;14.49;100.00;95932.38;1019854;29;20110;-73
2023/10/12 02:12:26;;;;;;;0.63;0.63;;;;;;;14.47;100.00;95944.28;1015257;29;20027;-75
2023/10/12 02:12:56;;;;;;;1.60;1.33;;;;;;;14.49;100.00;95945.59;1012960;29;20028;-75
2023/10/12 02:13:32;;;;;;;1.55;1.45;;;;;;;14.47;100.00;95942.44;1015747;29;20027;-76
2023/10/12 02:14:03;;;;;;;0.35;0.35;;;;;;;14.38;100.00;95934.38;1020201;29;20069;-76
2023/10/12 02:14:33;;;;;;;2.33;1.00;;;;;;;14.40;100.00;95934.06;1021022;29;20020;-74
2023/10/12 02:15:04;;;;;;;1.23;0.93;;;;;;;14.38;100.00;95946.75;1018871;29;20019;-73
2023/10/12 02:15:35;;;;;;;0.40;0.40;;;;;;;14.38;100.00;95946.75;1019770;29;20028;-76
2023/10/12 02:16:12;;;;;;;0.43;0.43;;;;;;;14.31;100.00;95936.53;1020105;29;20032;-76
2023/10/12 02:16:53;;;;;;;0.75;0.75;;;;;;;14.32;100.00;95932.84;1016727;29;20051;-76
2023/10/12 02:17:25;;;;;;;1.23;0.68;;;;;;;14.34;100.00;95940.47;1013796;29;20024;-75
2023/10/12 02:17:58;;;;;;;0.73;0.73;;;;;;;14.24;100.00;95936.09;1011982;29;20033;-76
2023/10/12 02:18:34;;;;;;;0.60;0.60;;;;;;;14.24;100.00;95935.31;1018651;29;20056;-76
2023/10/12 02:19:05;;;;;;;0.32;0.32;;;;;;;14.28;100.00;95944.22;1022359;29;20639;-75
2023/10/12 02:19:41;;;;;;;1.27;1.00;;;;;;;14.27;100.00;95937.38;1016060;29;20024;-77
2023/10/12 02:20:12;;;;;;;0.50;0.50;;;;;;;14.30;100.00;95939.47;1011983;29;20654;-76
2023/10/12 02:20:59;;;;;;;0.50;0.38;;;;;;;14.32;100.00;95953.97;1015952;29;20083;-75
2023/10/12 02:21:33;;;;;;;5.93;1.20;;;;;;;14.22;100.00;95943.50;1018264;28;20027;-74
2023/10/12 02:22:03;;;;;;;0.08;0.08;;;;;;;14.24;100.00;95946.66;1019355;29;20020;-76
2023/10/12 02:22:36;;;;;;;1.85;0.93;;;;;;;14.19;100.00;95944.06;1012186;29;20016;-75
2023/10/12 02:23:11;;;;;;;0.30;0.30;;;;;;;14.21;100.00;95944.56;1012792;29;20024;-76
2023/10/12 02:24:24;;;;;;;2.05;1.38;;;;;;;14.14;100.00;95941.47;1020138;29;20016;-75
2023/10/12 02:25:18;;;;;;;1.75;0.88;;;;;;;14.17;100.00;95953.31;1024371;28;20070;-74
2023/10/12 02:25:52;;;;;;;0.13;0.13;;;;;;;14.19;100.00;95949.34;1027296;28;20027;-74
2023/10/12 02:26:31;;;;;;;0.52;0.52;;;;;;;14.18;100.00;95954.88;1031844;28;20046;-75
2023/10/12 02:27:03;;;;;;;0.38;0.32;;;;;;;14.15;100.00;95953.59;1023876;29;20023;-75
2023/10/12 02:27:34;;;;;;;4.55;1.45;;;;;;;14.14;100.00;95952.03;1018339;29;20142;-75
2023/10/12 02:28:05;;;;;;;1.38;0.45;;;;;;;14.13;100.00;95950.47;1016230;29;20032;-75
2023/10/12 02:28:38;;;;;;;1.85;0.77;;;;;;;14.15;100.00;95958.88;1017092;29;20625;-75
2023/10/12 02:29:40;;;;;;;3.08;1.85;;;;;;;14.07;100.00;95944.44;1020197;29;20611;-76
2023/10/12 02:30:18;;;;;;;3.47;1.30;;;;;;;14.14;100.00;95952.03;1010308;29;20089;-74
2023/10/12 02:30:54;;;;;;;1.13;0.60;;;;;;;14.12;100.00;95952.31;1016027;29;20032;-76
2023/10/12 02:31:28;;;;;;;1.98;1.45;;;;;;;14.14;100.00;95957.31;1014143;29;20028;-75
2023/10/12 02:31:58;;;;;;;0.82;0.82;;;;;;;14.10;100.00;95951.81;1014539;29;20115;-76
2023/10/12 02:32:36;;;;;;;0.30;0.30;;;;;;;14.11;100.00;95957.84;1017782;29;20027;-75
2023/10/12 02:33:18;;;;;;;2.70;1.40;;;;;;;14.12;100.00;95959.47;1022689;29;20096;-75
2023/10/12 02:33:48;;;;;;;0.98;0.98;;;;;;;14.10;100.00;95958.94;1016714;29;20028;-75
2023/10/12 02:34:20;;;;;;;0.30;0.30;;;;;;;14.02;100.00;95947.16;1018793;29;20080;-75
2023/10/12 02:34:57;;;;;;;0.28;0.25;;;;;;;14.11;100.00;95953.38;1017037;29;20565;-76
2023/10/12 02:35:36;;;;;;;0.30;0.30;;;;;;;14.09;100.00;95947.59;1017351;29;20142;-76
2023/10/12 02:36:09;;;;;;;0.60;0.60;;;;;;;14.07;100.00;95946.28;1020233;29;20039;-76
2023/10/12 02:36:40;;;;;;;0.30;0.30;;;;;;;14.18;100.00;95957.53;1020329;29;20027;-77
2023/10/12 02:37:42;;;;;;;1.98;0.75;;;;;;;14.13;100.00;95951.25;1026950;28;20049;-75
2023/10/12 02:38:15;;;;;;;2.65;2.22;;;;;;;14.19;100.00;95957.25;1027726;28;20030;-76
2023/10/12 02:38:45;;;;;;;0.28;0.28;;;;;;;14.18;100.00;95957.53;1028091;28;20479;-76
2023/10/12 02:39:21;;;;;;;0.40;0.40;;;;;;;14.16;100.00;95955.19;1024230;29;20031;-78
2023/10/12 02:39:54;;;;;;;0.20;0.20;;;;;;;14.02;100.00;95935.81;1017118;29;20031;-76
2023/10/12 02:40:26;;;;;;;0.82;0.82;;;;;;;14.06;100.00;95947.38;1010507;29;20076;-75
2023/10/12 02:40:58;;;;;;;0.63;0.63;;;;;;;14.06;100.00;95952.66;1012461;29;20119;-76
2023/10/12 02:41:34;;;;;;;1.35;0.50;;;;;;;14.03;100.00;95961.13;1020222;29;20031;-75
2023/10/12 02:42:17;;;;;;;0.63;0.57;;;;;;;14.03;100.00;95958.47;1016515;29;20056;-76
2023/10/12 02:42:51;;;;;;;1.50;0.50;;;;;;;13.96;100.00;95955.38;1020057;29;20110;-75
2023/10/12 02:43:22;;;;;;;0.28;0.28;;;;;;;13.89;100.00;95948.56;1020982;29;20072;-76
2023/10/12 02:44:11;;;;;;;0.52;0.52;;;;;;;13.94;100.00;95958.28;1018870;29;20027;-75
2023/10/12 02:45:15;;;;;;;1.60;0.57;;;;;;;13.93;100.00;95945.38;1019495;29;20039;-75
2023/10/12 02:45:49;;;;;;;2.13;0.60;;;;;;;13.86;100.00;95951.75;1020134;29;20028;-76
2023/10/12 02:46:23;;;;;;;1.23;0.32;;;;;;;13.91;100.00;95954.34;1022510;28;20110;-75
2023/10/12 02:47:05;;;;;;;0.40;0.38;;;;;;;13.84;100.00;95945.19;1028180;28;20487;-75
2023/10/12 02:47:41;;;;;;;1.42;0.77;;;;;;;13.85;100.00;95955.47;1016254;29;20032;-75
2023/10/12 02:48:22;;;;;;;0.10;0.10;;;;;;;13.87;100.00;95953.34;1023206;29;20050;-75
2023/10/12 02:48:53;;;;;;;0.08;0.08;;;;;;;13.83;100.00;95954.97;1025529;28;20027;-75
2023/10/12 02:49:24;;;;;;;0.32;0.32;;;;;;;13.71;100.00;95930.78;1032111;28;20041;-74
2023/10/12 02:50:15;;;;;;;0.75;0.60;;;;;;;13.72;100.00;95935.03;1026541;28;20034;-75